Time;durP1;ratioP1;P1;durP2;ratioP2;P2;SDS_P1;SDS_P2;PMS_P1;PMS_P2;Temp;Humidity;BMP_temperature;BMP_pressure;BME280_temperature;BME280_humidity;BME280_pressure;Samples;Min_cycle;Max_cycle;Signal;HPM_P1;HPM_P2
2022/02/25 00:00:43;;;;;;;4.72;1.20;;;;;;;18.25;42.63;101585.22;5011719;28;20022;-67
2022/02/25 00:03:09;;;;;;;4.70;1.30;;;;;;;18.21;42.72;101584.56;5015939;28;20034;-67
2022/02/25 00:05:35;;;;;;;5.38;1.42;;;;;;;18.20;42.57;101587.31;5014454;28;20385;-67
2022/02/25 00:08:00;;;;;;;3.83;1.20;;;;;;;18.18;42.95;101594.50;5014800;28;20397;-67
2022/02/25 00:10:26;;;;;;;3.47;1.08;;;;;;;18.15;43.13;101595.56;5015389;28;20111;-67
2022/02/25 00:12:52;;;;;;;5.50;1.30;;;;;;;18.13;42.88;101595.69;5015933;28;20030;-67
2022/02/25 00:15:17;;;;;;;4.80;1.42;;;;;;;18.11;42.98;101599.34;5015331;28;20440;-67
2022/02/25 00:17:42;;;;;;;5.53;1.48;;;;;;;18.09;42.90;101593.34;5015576;28;20049;-66
2022/02/25 00:20:10;;;;;;;4.45;1.50;;;;;;;18.05;43.07;101603.25;5015848;28;20080;-67
2022/02/25 00:22:52;;;;;;;4.43;1.10;;;;;;;18.03;43.01;101599.88;5014915;28;20369;-67
2022/02/25 00:25:17;;;;;;;3.47;1.10;;;;;;;18.00;42.91;101602.72;5015665;28;20032;-67
2022/02/25 00:27:44;;;;;;;4.80;1.20;;;;;;;17.97;42.59;101610.84;5014350;28;20018;-67
2022/02/25 00:30:11;;;;;;;4.50;1.80;;;;;;;17.95;42.80;101612.75;5015582;28;20286;-67
2022/02/25 00:32:37;;;;;;;4.97;1.30;;;;;;;17.92;42.93;101619.06;5015451;28;20157;-67
2022/02/25 00:35:03;;;;;;;5.75;1.38;;;;;;;17.90;43.26;101622.78;5014851;28;20030;-67
2022/02/25 00:37:28;;;;;;;5.47;1.20;;;;;;;17.85;43.08;101624.81;5015114;28;20516;-67
2022/02/25 00:39:54;;;;;;;4.00;1.10;;;;;;;17.84;42.96;101634.53;5015923;28;20457;-67
2022/02/25 00:42:22;;;;;;;5.90;1.40;;;;;;;17.84;42.77;101641.63;5015223;28;20072;-67
2022/02/25 00:44:47;;;;;;;4.93;1.30;;;;;;;17.82;42.74;101640.88;5015862;28;20310;-67
2022/02/25 00:47:13;;;;;;;3.00;1.10;;;;;;;17.79;42.88;101646.38;5016162;28;20060;-67
2022/02/25 00:49:38;;;;;;;4.18;1.35;;;;;;;17.78;42.98;101650.78;5014913;28;20378;-67
2022/02/25 00:52:04;;;;;;;5.60;1.40;;;;;;;17.74;42.93;101641.41;5016577;28;20025;-67
2022/02/25 00:54:29;;;;;;;4.65;1.20;;;;;;;17.74;42.91;101654.56;5015757;28;20108;-66
2022/02/25 00:56:55;;;;;;;4.82;1.75;;;;;;;17.70;43.19;101648.63;5015322;28;20369;-67
2022/02/25 00:59:21;;;;;;;3.88;1.20;;;;;;;17.69;43.07;101652.25;5015717;28;20036;-67
2022/02/25 01:01:47;;;;;;;4.18;1.30;;;;;;;17.66;43.00;101644.53;5015744;28;20477;-67
2022/02/25 01:04:13;;;;;;;4.28;1.40;;;;;;;17.66;43.19;101651.63;5015002;28;20033;-67
2022/02/25 01:06:38;;;;;;;4.95;1.40;;;;;;;17.63;43.11;101652.66;5014848;28;20355;-67
2022/02/25 01:09:04;;;;;;;4.53;1.40;;;;;;;17.63;42.93;101646.53;5015778;28;20022;-67
2022/02/25 01:11:29;;;;;;;4.53;1.33;;;;;;;17.62;43.04;101648.31;5014960;28;20634;-67
2022/02/25 01:13:55;;;;;;;5.03;1.20;;;;;;;17.60;43.27;101652.84;5014833;28;20271;-67
2022/02/25 01:16:20;;;;;;;4.28;1.35;;;;;;;17.58;42.86;101657.38;5015777;28;20260;-67
2022/02/25 01:18:45;;;;;;;4.03;1.45;;;;;;;17.56;42.88;101659.25;5014271;28;20146;-67
2022/02/25 01:21:12;;;;;;;4.68;1.35;;;;;;;17.54;42.96;101663.78;5014915;28;20026;-67
2022/02/25 01:23:37;;;;;;;4.97;1.50;;;;;;;17.51;42.83;101661.34;5015122;28;20030;-67
2022/02/25 01:26:02;;;;;;;4.57;1.40;;;;;;;17.48;43.15;101659.78;5016375;28;20033;-67
2022/02/25 01:28:27;;;;;;;4.65;1.48;;;;;;;17.48;43.06;101659.78;5017625;28;20622;-67
2022/02/25 01:30:53;;;;;;;4.33;1.30;;;;;;;17.45;43.24;101653.84;5017849;28;20025;-67
2022/02/25 01:33:18;;;;;;;4.63;1.45;;;;;;;17.44;43.01;101655.66;5017225;28;20271;-67
2022/02/25 01:35:44;;;;;;;5.90;1.48;;;;;;;17.44;42.61;101652.19;5017122;28;20046;-66
2022/02/25 01:38:12;;;;;;;3.95;1.45;;;;;;;17.41;43.04;101656.69;5014357;28;20466;-67
2022/02/25 01:40:38;;;;;;;5.35;1.63;;;;;;;17.38;42.97;101642.88;5014105;28;20084;-66
2022/02/25 01:43:03;;;;;;;4.57;1.30;;;;;;;17.37;42.83;101638.53;5014546;28;20026;-66
2022/02/25 01:45:32;;;;;;;4.38;1.40;;;;;;;17.33;42.87;101640.53;5012954;28;20022;-67
2022/02/25 01:47:57;;;;;;;3.92;1.30;;;;;;;17.32;43.00;101641.50;5014120;28;20034;-66
2022/02/25 01:50:22;;;;;;;4.35;1.45;;;;;;;17.37;42.69;101656.97;5013602;28;20022;-67
2022/02/25 01:52:58;;;;;;;4.55;1.13;;;;;;;17.39;42.55;101645.41;5013428;28;20030;-67
2022/02/25 01:55:23;;;;;;;3.90;1.20;;;;;;;17.45;42.50;101656.47;5013543;28;20084;-66
2022/02/25 01:57:49;;;;;;;6.07;1.60;;;;;;;17.46;42.18;101653.75;5013993;28;20038;-66
2022/02/25 02:00:15;;;;;;;4.80;1.40;;;;;;;17.54;42.14;101661.16;5013222;28;20485;-67
2022/02/25 02:02:40;;;;;;;3.97;1.35;;;;;;;17.57;41.90;101660.97;5013181;28;20279;-67
2022/02/25 02:05:05;;;;;;;3.97;1.27;;;;;;;17.58;41.94;101660.84;5013697;28;20033;-66
2022/02/25 02:07:31;;;;;;;6.40;2.25;;;;;;;17.61;42.01;101651.91;5012594;28;20494;-66
2022/02/25 02:09:56;;;;;;;5.95;2.30;;;;;;;17.62;41.88;101652.75;5013495;28;20022;-66
2022/02/25 02:12:21;;;;;;;5.63;1.47;;;;;;;17.65;41.72;101657.81;5013343;28;20022;-66
2022/02/25 02:14:48;;;;;;;4.87;1.47;;;;;;;17.63;41.54;101655.28;5012622;28;20613;-67
2022/02/25 02:17:13;;;;;;;5.28;1.55;;;;;;;17.64;41.27;101654.34;5013280;28;20275;-67
2022/02/25 02:19:38;;;;;;;4.93;1.67;;;;;;;17.65;41.34;101652.53;5012981;28;20032;-66
2022/02/25 02:22:07;;;;;;;3.80;1.40;;;;;;;17.65;41.51;101652.53;5012977;28;20280;-67
2022/02/25 02:24:35;;;;;;;3.85;1.20;;;;;;;17.63;41.18;101654.44;5013098;28;20287;-67
2022/02/25 02:27:00;;;;;;;6.57;1.40;;;;;;;17.64;41.56;101651.72;5013613;28;20152;-67
2022/02/25 02:29:25;;;;;;;3.17;1.20;;;;;;;17.64;41.08;101650.84;5012302;28;20472;-67
2022/02/25 02:31:52;;;;;;;3.67;1.20;;;;;;;17.65;41.28;101642.84;5013193;28;20314;-68
2022/02/25 02:34:18;;;;;;;6.13;1.23;;;;;;;17.64;41.24;101656.13;5012519;28;20035;-68
2022/02/25 02:36:47;;;;;;;4.70;1.35;;;;;;;17.61;41.33;101649.28;5012832;28;20488;-67
2022/02/25 02:39:12;;;;;;;4.60;1.10;;;;;;;17.61;41.02;101651.06;5013451;28;20032;-66
2022/02/25 02:41:39;;;;;;;5.47;1.50;;;;;;;17.59;41.59;101651.16;5012403;28;20547;-67
2022/02/25 02:44:05;;;;;;;6.38;1.60;;;;;;;17.59;41.48;101659.94;5013279;28;20030;-68
2022/02/25 02:46:31;;;;;;;5.57;1.45;;;;;;;17.60;41.31;101652.84;5012712;28;20488;-68
2022/02/25 02:48:56;;;;;;;4.70;1.67;;;;;;;17.61;41.09;101654.56;5012250;28;20030;-68
2022/02/25 02:51:21;;;;;;;4.18;1.40;;;;;;;17.63;41.07;101649.19;5012809;28;20026;-68
2022/02/25 02:53:47;;;;;;;4.93;1.40;;;;;;;17.61;40.82;101649.28;5013158;28;20050;-67
2022/02/25 02:56:13;;;;;;;4.63;1.30;;;;;;;17.64;41.13;101659.63;5012339;28;20105;-67
2022/02/25 02:58:38;;;;;;;3.92;1.10;;;;;;;17.64;40.72;101654.34;5012572;28;20477;-67
2022/02/25 03:01:04;;;;;;;4.63;1.25;;;;;;;17.66;40.95;101663.00;5012809;28;20114;-67
2022/02/25 03:03:29;;;;;;;5.05;1.67;;;;;;;17.66;41.05;101655.09;5011922;28;20088;-68
2022/02/25 03:05:54;;;;;;;5.25;1.20;;;;;;;17.66;40.71;101649.81;5013034;28;20113;-67
2022/02/25 03:08:20;;;;;;;4.05;1.20;;;;;;;17.67;40.63;101655.91;5012395;28;20092;-67
2022/02/25 03:10:46;;;;;;;3.28;1.13;;;;;;;17.66;40.39;101652.44;5012006;28;20040;-67
2022/02/25 03:13:12;;;;;;;6.60;1.45;;;;;;;17.64;40.50;101649.06;5013019;28;20358;-67
2022/02/25 03:15:38;;;;;;;4.35;1.50;;;;;;;17.65;41.00;101655.19;5012657;28;20025;-67
2022/02/25 03:18:04;;;;;;;3.63;1.00;;;;;;;17.64;40.89;101651.72;5012127;28;20572;-68
2022/02/25 03:20:30;;;;;;;4.75;1.30;;;;;;;17.63;40.94;101644.75;5012666;28;20164;-68
2022/02/25 03:22:58;;;;;;;5.72;1.70;;;;;;;17.66;40.96;101647.19;5012579;28;20109;-67
2022/02/25 03:25:25;;;;;;;6.47;1.38;;;;;;;17.68;41.01;101649.72;5011797;28;20037;-67
2022/02/25 03:27:50;;;;;;;5.45;1.42;;;;;;;17.70;40.79;101645.16;5012860;28;20149;-67
2022/02/25 03:30:16;;;;;;;4.28;1.33;;;;;;;17.70;40.62;101646.00;5012632;28;20487;-67
2022/02/25 03:32:45;;;;;;;6.85;1.60;;;;;;;17.72;40.62;101649.41;5011501;28;20218;-67
2022/02/25 03:35:12;;;;;;;4.97;1.10;;;;;;;17.71;40.25;101646.88;5012811;28;20057;-67
2022/02/25 03:37:38;;;;;;;6.53;1.50;;;;;;;17.72;40.23;101646.78;5014864;28;20022;-67
2022/02/25 03:40:07;;;;;;;5.28;1.20;;;;;;;17.73;39.93;101642.34;5016115;28;20033;-67
2022/02/25 03:42:33;;;;;;;5.80;1.40;;;;;;;17.71;40.10;101641.59;5015595;28;20022;-67
2022/02/25 03:44:59;;;;;;;6.38;1.70;;;;;;;17.70;40.09;101640.72;5015502;28;20022;-67
2022/02/25 03:47:26;;;;;;;5.00;1.52;;;;;;;17.72;40.79;101645.91;5015673;28;20033;-67
2022/02/25 03:49:52;;;;;;;5.70;1.45;;;;;;;17.72;40.79;101646.78;5016096;28;20080;-67
2022/02/25 03:52:18;;;;;;;6.07;1.30;;;;;;;17.75;40.80;101648.34;5015311;28;20022;-66
2022/02/25 03:54:44;;;;;;;5.32;1.33;;;;;;;17.74;40.98;101647.50;5015362;28;20022;-66
2022/02/25 03:57:09;;;;;;;6.57;1.70;;;;;;;17.77;40.69;101643.81;5015924;28;20108;-66
2022/02/25 03:59:37;;;;;;;4.83;1.53;;;;;;;17.77;40.75;101639.38;5014918;28;20026;-66
2022/02/25 04:02:03;;;;;;;7.82;2.13;;;;;;;17.76;40.53;101648.25;5016236;28;20299;-66
2022/02/25 04:04:29;;;;;;;6.57;1.52;;;;;;;17.77;40.33;101643.81;5015667;28;20034;-67
2022/02/25 04:06:55;;;;;;;4.50;1.45;;;;;;;17.76;40.40;101645.59;5015039;28;20049;-68
2022/02/25 04:09:20;;;;;;;6.65;1.67;;;;;;;17.77;39.90;101646.47;5015586;28;20026;-66
2022/02/25 04:11:47;;;;;;;6.47;1.65;;;;;;;17.77;40.32;101635.91;5015833;28;20033;-67
2022/02/25 04:14:14;;;;;;;4.97;1.42;;;;;;;17.76;40.20;101640.31;5014971;28;20057;-67
2022/02/25 04:16:39;;;;;;;6.75;1.70;;;;;;;17.75;39.94;101637.78;5015640;28;20064;-67
2022/02/25 04:19:05;;;;;;;7.25;1.30;;;;;;;17.76;40.39;101642.13;5015675;28;20444;-67
2022/02/25 04:21:31;;;;;;;4.85;1.25;;;;;;;17.73;40.55;101635.25;5014698;28;20068;-67
2022/02/25 04:23:56;;;;;;;4.15;1.10;;;;;;;17.77;40.45;101635.91;5015428;28;20030;-67
2022/02/25 04:26:21;;;;;;;4.72;1.30;;;;;;;17.77;40.80;101635.91;5015221;28;20026;-68
2022/02/25 04:28:46;;;;;;;5.70;1.53;;;;;;;17.80;40.68;101645.41;5014566;28;20030;-67
2022/02/25 04:31:12;;;;;;;5.03;1.60;;;;;;;17.80;40.42;101637.47;5015577;28;20282;-67
2022/02/25 04:33:37;;;;;;;5.97;1.45;;;;;;;17.79;40.63;101644.56;5015276;28;20503;-67
2022/02/25 04:36:03;;;;;;;8.10;1.85;;;;;;;17.81;40.10;101652.38;5014689;28;20029;-67
2022/02/25 04:38:28;;;;;;;5.45;1.42;;;;;;;17.79;39.70;101639.28;5014979;28;20477;-67
2022/02/25 04:40:55;;;;;;;7.20;1.70;;;;;;;17.80;40.01;101640.13;5014441;28;20036;-68
2022/02/25 04:43:20;;;;;;;6.07;1.40;;;;;;;17.80;40.10;101653.31;5014735;28;20112;-68
2022/02/25 04:45:47;;;;;;;5.70;1.55;;;;;;;17.77;40.24;101647.28;5015057;28;20058;-67
2022/02/25 04:48:12;;;;;;;4.45;1.30;;;;;;;17.77;40.57;101644.66;5014455;28;20080;-68
2022/02/25 04:50:40;;;;;;;4.80;1.48;;;;;;;17.80;40.74;101648.91;5014960;28;20025;-68
2022/02/25 04:53:05;;;;;;;5.10;1.10;;;;;;;17.76;40.83;101648.25;5015016;28;20030;-67
2022/02/25 04:55:33;;;;;;;8.03;1.73;;;;;;;17.80;40.37;101654.16;5013738;28;20068;-68
2022/02/25 04:57:58;;;;;;;6.05;1.30;;;;;;;17.80;40.60;101667.34;5014711;28;20263;-68
2022/02/25 05:00:30;;;;;;;3.93;1.23;;;;;;;17.82;40.44;101662.81;5014841;28;20029;-67
2022/02/25 05:02:55;;;;;;;5.68;1.30;;;;;;;17.82;40.00;101673.34;5014040;28;20291;-66
2022/02/25 05:05:20;;;;;;;5.93;1.40;;;;;;;17.83;39.76;101667.16;5014459;28;20377;-66
2022/02/25 05:07:46;;;;;;;6.18;1.33;;;;;;;17.81;39.76;101671.66;5014575;28;20341;-66
2022/02/25 05:10:12;;;;;;;4.43;1.42;;;;;;;17.82;39.58;101672.53;5013826;28;20022;-66
2022/02/25 05:12:41;;;;;;;6.47;1.38;;;;;;;17.82;40.03;101683.91;5014125;28;20518;-66
2022/02/25 05:20:34;;;;;;;4.68;1.10;;;;;;;17.81;40.66;101663.75;5014239;28;20385;-66
2022/02/25 05:23:02;;;;;;;5.03;1.30;;;;;;;17.81;40.30;101658.47;5014420;28;20030;-66
2022/02/25 05:25:29;;;;;;;6.38;1.40;;;;;;;17.83;40.15;101651.31;5013374;28;20276;-67
2022/02/25 05:27:56;;;;;;;7.40;1.70;;;;;;;17.81;40.38;101652.38;5014579;28;20030;-67
2022/02/25 05:30:22;;;;;;;7.13;1.48;;;;;;;17.84;40.59;101657.44;5013331;28;20018;-67
2022/02/25 05:32:48;;;;;;;4.28;1.33;;;;;;;17.84;40.24;101649.53;5014346;28;20113;-67
2022/02/25 05:35:15;;;;;;;4.93;1.27;;;;;;;17.84;39.91;101654.81;5014138;28;20202;-67
2022/02/25 05:37:42;;;;;;;4.88;1.17;;;;;;;17.83;39.61;101661.00;5013255;28;20022;-68
2022/02/25 05:40:13;;;;;;;4.28;1.30;;;;;;;17.82;40.15;101661.97;5013845;28;20473;-68
2022/02/25 05:42:38;;;;;;;5.13;1.38;;;;;;;17.81;40.23;101661.13;5013451;28;20488;-67
2022/02/25 05:45:08;;;;;;;5.20;1.50;;;;;;;17.83;40.78;101671.56;5013199;28;20022;-67
2022/02/25 05:47:34;;;;;;;5.18;1.20;;;;;;;17.83;40.76;101669.78;5013513;28;20029;-66
2022/02/25 05:50:00;;;;;;;5.80;1.83;;;;;;;17.85;40.90;101677.56;5013856;28;20101;-67
2022/02/25 05:52:31;;;;;;;6.20;1.35;;;;;;;17.85;40.84;101672.28;5012544;28;20164;-67
2022/02/25 05:54:56;;;;;;;5.70;1.50;;;;;;;17.86;40.35;101679.25;5013979;28;20112;-67
2022/02/25 05:57:22;;;;;;;6.75;1.90;;;;;;;17.85;40.50;101683.72;5013436;28;20576;-67
2022/02/25 05:59:47;;;;;;;6.57;1.58;;;;;;;17.85;39.89;101682.84;5012516;28;20022;-67
2022/02/25 06:02:15;;;;;;;6.18;1.73;;;;;;;17.86;40.11;101685.38;5013553;28;20025;-68
2022/02/25 06:04:40;;;;;;;6.40;1.48;;;;;;;17.87;40.78;101683.59;5013516;28;20025;-67
2022/02/25 06:07:15;;;;;;;4.83;1.40;;;;;;;17.89;41.42;101692.28;5012784;28;20064;-67
2022/02/25 06:09:40;;;;;;;5.68;1.10;;;;;;;17.90;41.96;101691.34;5013327;28;20283;-68
2022/02/25 06:12:06;;;;;;;6.00;1.27;;;;;;;17.94;42.60;101700.72;5013482;28;20029;-66
2022/02/25 06:14:31;;;;;;;4.88;1.20;;;;;;;17.98;42.28;101706.66;5012476;28;20323;-67
2022/02/25 06:16:56;;;;;;;4.63;1.17;;;;;;;17.99;42.77;101711.84;5013266;28;20117;-67
2022/02/25 06:19:21;;;;;;;4.30;1.20;;;;;;;18.02;42.64;101710.75;5012506;28;20341;-67
2022/02/25 06:21:47;;;;;;;4.82;1.52;;;;;;;18.03;42.45;101710.66;5013465;28;20108;-67
2022/02/25 06:24:12;;;;;;;4.35;1.35;;;;;;;18.08;42.45;101715.63;5013349;28;20104;-67
2022/02/25 06:26:37;;;;;;;4.77;1.23;;;;;;;18.08;42.46;101711.19;5012250;28;20033;-67
2022/02/25 06:29:03;;;;;;;6.47;1.67;;;;;;;18.10;42.43;101713.72;5013118;28;20687;-72
2022/02/25 06:31:28;;;;;;;9.93;1.50;;;;;;;18.09;39.89;101712.88;5012779;28;20299;-66
2022/02/25 06:33:54;;;;;;;6.00;1.45;;;;;;;18.08;42.29;101719.09;5012390;28;20026;-67
2022/02/25 06:36:19;;;;;;;7.47;1.67;;;;;;;18.12;42.85;101728.50;5012902;28;20097;-64
2022/02/25 06:38:50;;;;;;;6.87;2.23;;;;;;;18.15;42.73;101719.56;5013039;28;20053;-64
2022/02/25 06:41:16;;;;;;;7.00;1.92;;;;;;;18.18;42.60;101723.75;5012495;28;20278;-65
2022/02/25 06:43:42;;;;;;;4.93;1.30;;;;;;;18.23;42.62;101727.78;5012755;28;20034;-65
2022/02/25 06:46:11;;;;;;;7.00;1.20;;;;;;;18.24;42.61;101718.91;5012871;28;20053;-65
2022/02/25 06:48:37;;;;;;;6.50;1.52;;;;;;;18.31;42.83;101729.91;5012155;28;20033;-63
2022/02/25 06:51:02;;;;;;;5.72;1.20;;;;;;;18.34;42.86;101726.22;5013084;28;20021;-64
2022/02/25 06:53:27;;;;;;;5.80;1.52;;;;;;;18.37;42.78;101741.84;5012738;28;20108;-64
2022/02/25 06:55:55;;;;;;;4.80;1.40;;;;;;;18.39;42.69;101743.44;5012143;28;20033;-63
2022/02/25 06:58:21;;;;;;;6.85;1.75;;;;;;;18.40;42.74;101739.81;5012456;28;20532;-65
2022/02/25 07:00:46;;;;;;;5.18;1.30;;;;;;;18.43;42.58;101758.09;5012742;28;20152;-68
2022/02/25 07:03:11;;;;;;;5.32;1.10;;;;;;;18.46;42.86;101765.81;5011993;28;20065;-68
2022/02/25 07:05:39;;;;;;;5.30;1.45;;;;;;;18.45;42.91;101761.50;5012635;28;20030;-67
2022/02/25 07:08:08;;;;;;;6.93;1.48;;;;;;;18.47;43.00;101762.22;5012724;28;20456;-65
2022/02/25 07:10:36;;;;;;;5.65;1.25;;;;;;;18.50;43.33;101763.81;5012030;28;20165;-65
2022/02/25 07:13:04;;;;;;;5.47;1.30;;;;;;;18.53;43.31;101762.75;5016527;28;20764;-65
2022/02/25 07:15:30;;;;;;;7.95;1.58;;;;;;;18.54;42.31;101767.91;5016446;28;20112;-66
2022/02/25 07:17:56;;;;;;;5.38;1.27;;;;;;;18.51;42.05;101767.28;5015801;28;20080;-67
2022/02/25 07:20:22;;;;;;;5.07;1.30;;;;;;;18.51;42.98;101772.56;5016281;28;20488;-67
2022/02/25 07:22:50;;;;;;;5.15;1.38;;;;;;;18.52;43.21;101771.59;5015954;28;20018;-68
2022/02/25 07:25:15;;;;;;;5.07;1.40;;;;;;;18.51;43.17;101770.75;5016446;28;20473;-67
2022/02/25 07:27:41;;;;;;;4.72;1.10;;;;;;;18.53;43.15;101775.94;5016027;28;20018;-67
2022/02/25 07:30:08;;;;;;;5.05;1.30;;;;;;;18.57;43.20;101782.72;5015819;28;20026;-66
2022/02/25 07:32:34;;;;;;;6.28;1.40;;;;;;;18.58;43.13;101779.09;5015993;28;20531;-67
2022/02/25 07:35:04;;;;;;;5.85;1.60;;;;;;;18.59;43.43;101778.16;5016499;28;20026;-68
2022/02/25 07:37:30;;;;;;;5.40;1.38;;;;;;;18.61;42.96;101798.25;5015146;28;20038;-67
2022/02/25 07:39:56;;;;;;;8.00;1.63;;;;;;;18.58;40.59;101797.59;5016433;28;20022;-67
2022/02/25 07:42:23;;;;;;;6.72;1.55;;;;;;;18.56;42.28;101802.97;5015675;28;20045;-68
2022/02/25 07:44:48;;;;;;;5.78;1.42;;;;;;;18.58;43.55;101809.00;5015444;28;20037;-69
2022/02/25 07:47:13;;;;;;;5.88;1.42;;;;;;;18.60;43.44;101803.63;5016141;28;20025;-69
2022/02/25 07:49:39;;;;;;;7.90;2.22;;;;;;;18.71;43.85;101806.38;5015919;28;20508;-68
2022/02/25 07:52:15;;;;;;;9.43;1.90;;;;;;;18.79;44.17;101809.34;5015505;28;20034;-68
2022/02/25 07:54:41;;;;;;;5.00;1.40;;;;;;;18.91;44.01;101818.22;5016087;28;20026;-69
2022/02/25 07:57:07;;;;;;;8.57;1.65;;;;;;;18.99;44.05;101821.19;5016178;28;20226;-65
2022/02/25 07:59:32;;;;;;;6.35;1.67;;;;;;;19.07;43.96;101833.00;5014958;28;20145;-66
2022/02/25 08:01:58;;;;;;;7.90;1.90;;;;;;;19.13;43.62;101837.88;5016078;28;20018;-66
2022/02/25 08:04:26;;;;;;;6.13;1.50;;;;;;;19.17;43.11;101831.44;5015900;28;20492;-64
2022/02/25 08:06:52;;;;;;;7.57;1.60;;;;;;;19.23;43.59;101843.34;5014847;28;20418;-64
2022/02/25 08:09:19;;;;;;;5.22;1.35;;;;;;;19.27;43.47;101852.78;5015096;28;20492;-65
2022/02/25 08:11:44;;;;;;;7.50;1.33;;;;;;;19.31;43.55;101851.59;5014635;28;20022;-64
2022/02/25 08:14:12;;;;;;;8.18;1.88;;;;;;;19.35;43.50;101859.19;5013927;28;20485;-68
2022/02/25 08:16:37;;;;;;;8.68;1.80;;;;;;;19.39;43.62;101857.16;5014021;28;20499;-69
2022/02/25 08:19:03;;;;;;;6.95;1.60;;;;;;;19.44;43.58;101868.28;5013899;28;20017;-68
2022/02/25 08:21:29;;;;;;;7.28;3.50;;;;;;;19.46;43.05;101869.00;5013903;28;20030;-67
2022/02/25 08:23:54;;;;;;;10.23;2.00;;;;;;;19.50;43.21;101873.16;5014655;28;20117;-65
2022/02/25 08:26:19;;;;;;;8.73;2.00;;;;;;;19.52;43.23;101870.38;5013591;28;20267;-67
2022/02/25 08:28:44;;;;;;;5.67;1.60;;;;;;;19.55;43.20;101883.38;5014392;28;20022;-69
2022/02/25 08:31:11;;;;;;;7.90;1.73;;;;;;;19.48;40.44;101880.31;5014412;28;20263;-72
2022/02/25 08:33:40;;;;;;;7.53;1.92;;;;;;;19.47;42.03;101886.56;5013446;28;20030;-73
2022/02/25 08:36:11;;;;;;;5.55;1.70;;;;;;;19.46;42.51;101884.03;5014249;28;20414;-68
2022/02/25 08:38:36;;;;;;;7.30;1.85;;;;;;;19.49;42.65;101887.31;5013902;28;20052;-68
2022/02/25 08:41:05;;;;;;;6.90;1.80;;;;;;;19.53;42.86;101893.22;5013634;28;20469;-70
2022/02/25 08:43:31;;;;;;;5.85;1.77;;;;;;;19.56;42.68;101898.28;5013952;28;20030;-71
2022/02/25 08:45:57;;;;;;;7.53;1.75;;;;;;;19.60;42.96;101907.69;5014355;28;20067;-71
2022/02/25 08:48:23;;;;;;;9.55;1.70;;;;;;;19.63;42.91;101911.91;5013008;28;20026;-69
2022/02/25 08:50:50;;;;;;;7.78;1.77;;;;;;;19.65;42.84;101912.66;5014155;28;20429;-67
2022/02/25 08:53:15;;;;;;;9.68;1.85;;;;;;;19.68;43.02;101915.09;5013670;28;20470;-68
2022/02/25 08:55:40;;;;;;;7.83;1.60;;;;;;;19.68;42.95;101915.09;5012796;28;20033;-67
2022/02/25 08:58:06;;;;;;;8.43;2.05;;;;;;;19.64;42.54;101917.09;5013895;28;20030;-68
2022/02/25 09:00:31;;;;;;;6.90;1.52;;;;;;;19.66;42.83;101919.63;5013644;28;20022;-69
2022/02/25 09:02:57;;;;;;;8.50;2.25;;;;;;;19.65;42.87;101934.66;5013017;28;20026;-68
2022/02/25 09:05:23;;;;;;;8.23;2.42;;;;;;;19.65;42.74;101947.88;5013181;28;20022;-67
2022/02/25 09:07:50;;;;;;;8.80;2.17;;;;;;;19.60;42.13;101938.56;4978942;28;1016605;-67
2022/02/25 09:10:16;;;;;;;7.80;1.80;;;;;;;19.55;43.02;101945.03;5013962;28;20072;-66
2022/02/25 09:12:42;;;;;;;8.55;1.75;;;;;;;19.51;42.89;101950.66;5014396;28;20045;-67
2022/02/25 09:15:10;;;;;;;8.00;1.58;;;;;;;19.48;43.13;101949.06;5014409;28;20037;-66
2022/02/25 09:17:35;;;;;;;4.97;1.48;;;;;;;19.44;43.46;101952.88;5013818;28;20389;-67
2022/02/25 09:20:01;;;;;;;7.97;1.63;;;;;;;19.43;43.14;101947.69;5014394;28;20018;-66
2022/02/25 09:22:26;;;;;;;6.32;1.55;;;;;;;19.38;43.98;101953.31;5013190;28;20056;-66
2022/02/25 09:24:51;;;;;;;7.28;2.05;;;;;;;19.39;43.69;101957.63;5014313;28;20033;-67
2022/02/25 09:27:17;;;;;;;9.70;2.38;;;;;;;19.36;43.61;101969.28;5014474;28;20545;-67
2022/02/25 09:29:43;;;;;;;7.95;1.77;;;;;;;19.35;43.64;101969.38;5013340;28;20025;-67
2022/02/25 09:32:08;;;;;;;6.65;1.63;;;;;;;19.34;43.73;101972.97;5014142;28;20026;-67
2022/02/25 09:34:34;;;;;;;5.90;1.55;;;;;;;19.32;44.00;101975.69;5013266;28;20061;-67
2022/02/25 09:36:59;;;;;;;8.70;1.70;;;;;;;19.32;43.71;101982.78;5013060;28;20013;-68
2022/02/25 09:39:25;;;;;;;7.38;1.77;;;;;;;19.30;44.02;101988.19;5013813;28;20093;-68
2022/02/25 09:41:50;;;;;;;7.50;1.70;;;;;;;19.30;44.26;101990.00;5014096;28;20018;-68
2022/02/25 09:44:16;;;;;;;6.97;1.67;;;;;;;19.28;43.93;101989.22;5013091;28;20294;-68
2022/02/25 09:46:44;;;;;;;7.40;1.88;;;;;;;19.27;43.70;101998.13;5013623;28;20026;-67
2022/02/25 09:49:12;;;;;;;5.65;1.58;;;;;;;19.27;43.85;101998.13;5013685;28;20493;-68
2022/02/25 09:51:38;;;;;;;5.32;1.40;;;;;;;19.25;43.99;102005.28;5012627;28;20052;-68
2022/02/25 09:54:05;;;;;;;6.88;1.80;;;;;;;19.24;43.81;102012.38;5013825;28;20469;-68
2022/02/25 09:56:31;;;;;;;5.18;1.55;;;;;;;19.23;44.12;102015.97;5013465;28;20030;-68
2022/02/25 09:58:57;;;;;;;7.95;1.80;;;;;;;19.22;43.93;102022.22;5012999;28;20109;-68
2022/02/25 10:01:30;;;;;;;4.82;1.65;;;;;;;19.21;44.28;102031.94;5013449;28;20446;-67
2022/02/25 10:03:55;;;;;;;6.57;1.58;;;;;;;19.20;43.73;102034.66;5013476;28;20029;-67
2022/02/25 10:06:29;;;;;;;5.38;1.40;;;;;;;19.20;43.63;102039.97;5012535;28;20022;-67
2022/02/25 10:08:55;;;;;;;8.60;2.03;;;;;;;19.18;43.21;102042.72;5013619;28;20038;-67
2022/02/25 10:11:20;;;;;;;6.05;1.50;;;;;;;19.20;44.22;102045.25;5013206;28;20114;-67
2022/02/25 10:13:46;;;;;;;7.20;1.57;;;;;;;19.18;44.03;102044.50;5012903;28;20121;-67
2022/02/25 10:16:12;;;;;;;7.80;2.05;;;;;;;19.17;44.14;102048.97;5013434;28;20117;-68
2022/02/25 10:18:37;;;;;;;7.45;1.60;;;;;;;19.16;44.23;102054.34;5012411;28;20112;-68
2022/02/25 10:21:08;;;;;;;6.65;1.42;;;;;;;19.15;44.29;102048.22;5013138;28;20034;-68
2022/02/25 10:23:39;;;;;;;6.38;1.50;;;;;;;19.16;44.46;102063.09;5013117;28;20034;-68
2022/02/25 10:26:11;;;;;;;7.03;1.83;;;;;;;19.15;44.19;102064.06;5012498;28;20469;-68
2022/02/25 10:28:37;;;;;;;7.43;2.08;;;;;;;19.14;44.10;102062.38;5012870;28;20033;-69
2022/02/25 10:31:22;;;;;;;5.95;1.70;;;;;;;19.13;44.15;102068.59;5013310;28;20068;-68
2022/02/25 10:34:06;;;;;;;7.93;1.73;;;;;;;19.14;44.51;102065.00;5012528;28;20473;-68
2022/02/25 10:36:46;;;;;;;7.97;1.35;;;;;;;19.14;44.40;102070.31;5012972;28;20053;-68
2022/02/25 10:39:26;;;;;;;6.80;1.65;;;;;;;19.14;44.71;102074.75;5013337;28;20049;-68
2022/02/25 10:42:06;;;;;;;8.07;1.50;;;;;;;19.14;44.79;102072.09;5012633;28;20022;-68
2022/02/25 10:44:49;;;;;;;7.80;1.65;;;;;;;19.14;44.56;102078.22;5012699;28;20034;-69
2022/02/25 10:47:17;;;;;;;7.68;1.50;;;;;;;19.14;44.63;102074.75;5012480;28;20022;-69
2022/02/25 10:49:43;;;;;;;7.10;1.75;;;;;;;19.14;44.76;102075.59;5012667;28;20026;-69
2022/02/25 10:52:29;;;;;;;7.40;1.35;;;;;;;19.15;44.38;102076.41;5013006;28;20040;-69
2022/02/25 10:54:55;;;;;;;6.40;1.65;;;;;;;19.15;44.55;102085.22;5012193;28;20480;-69
2022/02/25 10:57:21;;;;;;;7.65;1.75;;;;;;;19.16;44.37;102075.47;5012701;28;20029;-69
2022/02/25 10:59:47;;;;;;;7.10;1.45;;;;;;;19.15;44.51;102079.94;5012997;28;20084;-69
2022/02/25 11:02:26;;;;;;;7.88;1.70;;;;;;;19.18;44.63;102081.50;5012088;28;20080;-69
2022/02/25 11:05:18;;;;;;;6.75;1.45;;;;;;;19.17;44.57;102093.88;5013108;28;20141;-69
2022/02/25 11:07:51;;;;;;;5.13;1.30;;;;;;;19.18;44.68;102094.72;5010505;28;20048;-69
2022/02/25 11:10:19;;;;;;;6.13;1.50;;;;;;;19.18;44.42;102097.34;5012994;28;20030;-68
2022/02/25 11:12:46;;;;;;;6.43;1.30;;;;;;;19.17;44.67;102090.41;5012810;28;20026;-68
2022/02/25 11:15:16;;;;;;;7.75;1.60;;;;;;;19.16;44.38;102104.56;5012270;28;20026;-68
2022/02/25 11:17:42;;;;;;;6.63;1.80;;;;;;;19.15;44.36;102101.06;5012609;28;20071;-68
2022/02/25 11:20:08;;;;;;;6.13;1.67;;;;;;;19.15;44.21;102102.84;5012859;28;20058;-68
2022/02/25 11:22:39;;;;;;;4.82;1.33;;;;;;;19.17;44.60;102107.09;5011682;28;20018;-68
2022/02/25 11:25:07;;;;;;;6.13;1.60;;;;;;;19.18;44.49;102107.94;5012563;28;20033;-68
2022/02/25 11:27:35;;;;;;;8.15;1.90;;;;;;;19.18;44.55;102106.16;5012314;28;20393;-68